createdAt,value
2023-03-10T00:02:11.446Z,77.61
2023-03-10T00:05:20.042Z,77.28
2023-03-10T00:08:27.181Z,77.32
2023-03-10T00:11:37.111Z,76.80
2023-03-10T00:14:43.502Z,76.75
2023-03-10T00:17:55.888Z,77.07
2023-03-10T00:21:01.982Z,77.06
2023-03-10T00:24:09.303Z,77.65
2023-03-10T00:27:17.883Z,77.43
2023-03-10T00:30:24.989Z,77.34
2023-03-10T00:33:31.062Z,76.77
2023-03-10T00:36:38.167Z,76.67
2023-03-10T00:39:44.138Z,76.88
2023-03-10T00:43:00.969Z,76.45
2023-03-10T00:46:08.137Z,76.51
2023-03-10T00:49:19.936Z,76.26
2023-03-10T00:52:25.856Z,76.14
2023-03-10T00:55:32.731Z,76.02
2023-03-10T00:58:42.059Z,76.16
2023-03-10T01:01:48.896Z,75.52
2023-03-10T01:04:55.291Z,75.49
2023-03-10T01:08:01.981Z,74.72
2023-03-10T01:11:08.419Z,74.28
2023-03-10T01:14:20.654Z,74.14
2023-03-10T01:17:27.785Z,74.17
2023-03-10T01:20:38.212Z,73.64
2023-03-10T01:23:44.169Z,73.37
2023-03-10T01:26:51.069Z,73.18
2023-03-10T01:29:59.777Z,73.00
2023-03-10T01:33:06.747Z,72.70
2023-03-10T01:36:16.150Z,72.71
2023-03-10T01:39:25.524Z,72.18
2023-03-10T01:42:31.567Z,71.93
2023-03-10T01:46:31.911Z,71.71
2023-03-10T01:49:48.479Z,71.81
2023-03-10T01:52:58.698Z,71.63
2023-03-10T01:56:09.740Z,71.52
2023-03-10T01:59:18.722Z,71.84
2023-03-10T02:02:25.373Z,71.53
2023-03-10T02:05:35.813Z,71.83
2023-03-10T02:08:48.654Z,72.10
2023-03-10T02:11:55.983Z,72.46
2023-03-10T02:15:02.336Z,72.87
2023-03-10T02:18:14.876Z,73.08
2023-03-10T02:21:46.215Z,73.69
2023-03-10T02:25:02.710Z,73.59
2023-03-10T02:28:12.097Z,73.41
2023-03-10T02:31:22.421Z,73.77
2023-03-10T02:34:31.547Z,73.66
2023-03-10T02:37:40.185Z,73.97
2023-03-10T02:40:50.978Z,74.37
2023-03-10T02:44:11.025Z,74.21
2023-03-10T02:47:17.375Z,74.57
2023-03-10T02:50:30.204Z,74.78
2023-03-10T02:53:36.236Z,74.62
2023-03-10T02:56:43.916Z,75.12
2023-03-10T02:59:53.379Z,75.06
2023-03-10T03:03:01.156Z,74.96
2023-03-10T03:06:08.600Z,74.62
2023-03-10T03:09:15.830Z,74.25
2023-03-10T03:12:23.238Z,74.06
2023-03-10T03:15:33.837Z,74.26
2023-03-10T03:18:41.468Z,74.18
2023-03-10T03:21:51.260Z,74.09
2023-03-10T03:24:57.342Z,74.17
2023-03-10T03:28:04.312Z,73.88
2023-03-10T03:31:18.762Z,74.70
2023-03-10T03:35:25.279Z,75.25
2023-03-10T03:38:32.950Z,75.62
2023-03-10T03:41:42.277Z,76.27
2023-03-10T03:44:50.124Z,76.81
2023-03-10T03:48:00.494Z,76.99
2023-03-10T03:51:09.548Z,77.21
2023-03-10T03:54:20.329Z,77.11
2023-03-10T03:57:29.342Z,77.08
2023-03-10T04:00:40.364Z,77.00
2023-03-10T04:03:51.507Z,77.01
2023-03-10T04:06:58.722Z,77.09
2023-03-10T04:10:05.490Z,76.98
2023-03-10T04:13:12.516Z,77.20
2023-03-10T04:16:18.718Z,77.64
2023-03-10T04:19:30.389Z,77.48
2023-03-10T04:22:45.133Z,77.49
2023-03-10T04:25:52.627Z,77.75
2023-03-10T04:28:59.741Z,77.57
2023-03-10T04:32:09.508Z,77.70
2023-03-10T04:35:22.172Z,76.99
2023-03-10T04:38:29.018Z,77.08
2023-03-10T04:41:35.201Z,77.46
2023-03-10T04:44:42.132Z,77.63
2023-03-10T04:47:48.116Z,77.94
2023-03-10T04:51:05.544Z,78.44
2023-03-10T04:54:16.139Z,79.18
2023-03-10T04:57:24.751Z,79.40
2023-03-10T05:00:32.448Z,80.26
2023-03-10T05:03:39.690Z,80.61
2023-03-10T05:06:54.070Z,81.04
2023-03-10T05:10:06.253Z,80.80
2023-03-10T05:13:13.147Z,80.33
2023-03-10T05:16:24.643Z,80.73
2023-03-10T05:19:32.592Z,80.45
2023-03-10T05:22:43.309Z,79.77
2023-03-10T05:25:52.696Z,79.47
2023-03-10T05:29:01.575Z,79.04
2023-03-10T05:32:17.599Z,78.33
2023-03-10T05:35:27.324Z,77.86
2023-03-10T05:38:39.518Z,77.68
2023-03-10T05:41:51.625Z,77.16
2023-03-10T05:44:58.506Z,77.26
2023-03-10T05:48:05.782Z,77.25
2023-03-10T05:51:15.494Z,76.87
2023-03-10T05:54:25.749Z,76.84
2023-03-10T05:57:32.189Z,76.65
2023-03-10T06:00:39.265Z,75.89
2023-03-10T06:03:52.211Z,74.35
2023-03-10T06:07:00.815Z,72.37
2023-03-10T06:10:30.114Z,71.46
2023-03-10T06:13:36.969Z,70.75
2023-03-10T06:16:45.134Z,70.19
2023-03-10T06:19:52.635Z,68.90
2023-03-10T06:22:59.121Z,68.08
2023-03-10T06:26:12.309Z,66.71
2023-03-10T06:29:18.196Z,64.96
2023-03-10T06:32:25.145Z,64.05
2023-03-10T06:35:32.404Z,64.46
2023-03-10T06:38:39.412Z,64.53
2023-03-10T06:41:48.040Z,62.87
2023-03-10T06:44:57.932Z,61.32
2023-03-10T06:48:03.740Z,60.51
2023-03-10T06:51:22.376Z,58.60
2023-03-10T06:54:28.701Z,59.05
2023-03-10T06:57:40.255Z,60.12
2023-03-10T07:00:49.454Z,59.89
2023-03-10T07:03:57.112Z,59.14
2023-03-10T07:07:15.229Z,57.53
2023-03-10T07:10:23.395Z,59.16
2023-03-10T07:13:31.897Z,60.13
2023-03-10T07:16:38.816Z,61.01
2023-03-10T07:19:47.865Z,61.40
2023-03-10T07:22:55.375Z,61.37
2023-03-10T07:26:01.618Z,61.19
2023-03-10T07:29:15.920Z,58.34
2023-03-10T07:32:21.754Z,56.61
2023-03-10T07:35:28.858Z,55.26
2023-03-10T07:38:35.832Z,55.05
2023-03-10T07:41:42.792Z,55.39
2023-03-10T07:44:53.648Z,55.81
2023-03-10T07:48:00.441Z,55.10
2023-03-10T07:51:06.806Z,55.25
2023-03-10T07:54:16.248Z,54.30
2023-03-10T07:57:22.241Z,55.12
2023-03-10T08:00:31.805Z,55.17
2023-03-10T08:03:38.392Z,55.22
2023-03-10T08:06:48.069Z,54.54
2023-03-10T08:09:54.592Z,53.08
2023-03-10T08:13:01.530Z,52.81
2023-03-10T08:16:11.873Z,52.38
2023-03-10T08:19:18.722Z,52.33
2023-03-10T08:22:24.601Z,51.48
2023-03-10T08:25:32.005Z,50.62
2023-03-10T08:28:39.060Z,50.49
2023-03-10T08:31:49.347Z,49.52
2023-03-10T08:34:55.252Z,49.60
2023-03-10T08:38:02.068Z,49.09
2023-03-10T08:41:21.422Z,48.97
2023-03-10T08:44:28.409Z,48.84
2023-03-10T08:47:37.183Z,48.17
2023-03-10T08:50:44.349Z,47.81
2023-03-10T08:53:56.349Z,49.17
2023-03-10T08:57:03.211Z,49.63
2023-03-10T09:00:14.847Z,50.02
2023-03-10T09:03:25.933Z,51.21
2023-03-10T09:06:33.688Z,50.95
2023-03-10T09:09:40.498Z,49.80
2023-03-10T09:12:46.430Z,49.07
2023-03-10T09:15:53.329Z,48.81
2023-03-10T09:19:08.320Z,47.49
2023-03-10T09:22:15.112Z,47.88
2023-03-10T09:25:21.068Z,48.78
2023-03-10T09:28:28.013Z,48.44
2023-03-10T09:31:38.437Z,48.33
2023-03-10T09:34:48.388Z,48.45
2023-03-10T09:37:54.286Z,48.65
2023-03-10T09:41:25.350Z,48.49
2023-03-10T09:44:43.650Z,49.15
2023-03-10T09:48:14.628Z,49.76
2023-03-10T09:51:28.732Z,49.64
2023-03-10T09:54:55.701Z,50.20
2023-03-10T09:58:03.978Z,50.28
2023-03-10T10:01:21.595Z,49.60
2023-03-10T10:04:40.903Z,50.03
2023-03-10T10:07:57.873Z,50.36
2023-03-10T10:11:06.537Z,48.97
2023-03-10T10:14:28.815Z,48.48
2023-03-10T10:18:02.934Z,49.19
2023-03-10T10:21:41.771Z,48.23
2023-03-10T10:25:19.195Z,47.07
2023-03-10T10:28:42.362Z,45.24
2023-03-10T10:32:09.083Z,44.99
2023-03-10T10:35:26.238Z,44.16
2023-03-10T10:38:36.330Z,45.23
2023-03-10T10:41:45.664Z,45.82
2023-03-10T10:44:55.776Z,46.63
2023-03-10T10:48:02.867Z,46.84
2023-03-10T10:51:27.461Z,46.42
2023-03-10T10:54:43.941Z,46.66
2023-03-10T10:58:01.715Z,46.86
2023-03-10T11:01:12.691Z,46.91
2023-03-10T11:04:18.793Z,46.40
2023-03-10T11:07:30.138Z,46.45
2023-03-10T11:10:38.300Z,45.74
2023-03-10T11:14:08.643Z,45.08
2023-03-10T11:17:25.505Z,45.40
2023-03-10T11:20:47.012Z,45.72
2023-03-10T11:24:12.658Z,45.31
2023-03-10T11:27:34.263Z,45.61
2023-03-10T11:30:58.408Z,45.76
2023-03-10T11:34:25.920Z,46.23
2023-03-10T11:37:45.869Z,46.05
2023-03-10T11:40:58.445Z,45.31
2023-03-10T11:44:24.169Z,45.94
2023-03-10T11:47:54.631Z,44.81
2023-03-10T11:51:04.469Z,43.88
2023-03-10T11:54:25.685Z,44.66
2023-03-10T11:57:42.806Z,45.24
2023-03-10T12:00:53.982Z,45.90
2023-03-10T12:04:19.442Z,46.07
2023-03-10T12:07:32.816Z,46.37
2023-03-10T12:10:45.568Z,46.93
2023-03-10T12:13:59.710Z,47.65
2023-03-10T12:17:08.643Z,46.76
2023-03-10T12:20:37.214Z,46.13
2023-03-10T12:23:45.834Z,45.45
2023-03-10T12:27:07.573Z,44.77
2023-03-10T12:30:51.339Z,44.52
2023-03-10T12:34:18.904Z,45.61
2023-03-10T12:37:28.379Z,45.89
2023-03-10T12:40:55.203Z,45.87
2023-03-10T12:44:03.472Z,46.93
2023-03-10T12:47:46.323Z,48.49
2023-03-10T12:51:03.118Z,50.58
2023-03-10T12:54:57.401Z,53.65
2023-03-10T12:58:25.584Z,55.54
2023-03-10T13:01:55.198Z,53.51
2023-03-10T13:05:08.351Z,54.58
2023-03-10T13:08:27.435Z,54.31
2023-03-10T13:11:44.150Z,53.88
2023-03-10T13:14:59.153Z,53.12
2023-03-10T13:18:22.620Z,52.60
2023-03-10T13:21:34.385Z,51.89
2023-03-10T13:24:42.532Z,51.82
2023-03-10T13:27:52.835Z,50.71
2023-03-10T13:31:26.538Z,48.34
2023-03-10T13:34:36.990Z,47.83
2023-03-10T13:37:42.927Z,48.34
2023-03-10T13:40:52.823Z,48.08
2023-03-10T13:44:01.663Z,48.13
2023-03-10T13:47:20.650Z,47.79
2023-03-10T13:50:28.196Z,47.22
2023-03-10T13:53:36.462Z,47.51
2023-03-10T13:56:46.477Z,47.57
2023-03-10T14:00:00.003Z,47.36
2023-03-10T14:03:06.670Z,46.54
2023-03-10T14:06:17.349Z,46.51
2023-03-10T14:09:26.286Z,46.29
2023-03-10T14:12:42.846Z,47.23
2023-03-10T14:15:59.252Z,46.57
2023-03-10T14:19:06.057Z,47.10
2023-03-10T14:22:32.324Z,47.77
2023-03-10T14:25:44.755Z,47.43
2023-03-10T14:28:50.671Z,47.75
2023-03-10T14:32:00.149Z,47.48
2023-03-10T14:35:11.888Z,47.42
2023-03-10T14:38:20.149Z,47.67
2023-03-10T14:41:28.544Z,47.82
2023-03-10T14:44:36.887Z,48.25
2023-03-10T14:47:45.841Z,47.89
2023-03-10T14:50:56.584Z,46.92
2023-03-10T14:54:03.026Z,46.74
2023-03-10T14:57:10.264Z,47.98
2023-03-10T15:00:21.642Z,48.09
2023-03-10T15:03:31.454Z,48.96
2023-03-10T15:06:37.786Z,48.35
2023-03-10T15:09:44.744Z,48.97
2023-03-10T15:12:54.116Z,49.38
2023-03-10T15:16:01.733Z,48.84
2023-03-10T15:19:15.389Z,47.71
2023-03-10T15:22:22.337Z,48.70
2023-03-10T15:25:28.711Z,48.36
2023-03-10T15:28:36.400Z,48.71
2023-03-10T15:31:43.517Z,49.05
2023-03-10T15:34:53.301Z,49.84
2023-03-10T15:38:02.875Z,49.68
2023-03-10T15:41:10.578Z,50.67
2023-03-10T15:44:16.724Z,50.59
2023-03-10T15:47:23.376Z,51.05
2023-03-10T15:50:31.966Z,50.86
2023-03-10T15:53:53.501Z,50.72
2023-03-10T15:56:59.503Z,51.14
2023-03-10T16:00:07.214Z,51.95
2023-03-10T16:03:18.029Z,52.23
2023-03-10T16:06:31.890Z,52.55
2023-03-10T16:09:37.924Z,52.72
2023-03-10T16:12:46.482Z,53.03
2023-03-10T16:15:52.997Z,53.34
2023-03-10T16:18:59.960Z,53.52
2023-03-10T16:22:10.659Z,53.88
2023-03-10T16:25:21.572Z,54.35
2023-03-10T16:28:27.641Z,54.65
2023-03-10T16:31:35.380Z,55.22
2023-03-10T16:34:41.511Z,55.54
2023-03-10T16:37:50.940Z,55.77
2023-03-10T16:40:58.146Z,56.48
2023-03-10T16:44:08.025Z,56.93
2023-03-10T16:47:15.725Z,57.25
2023-03-10T16:50:24.367Z,58.06
2023-03-10T16:53:33.033Z,58.25
2023-03-10T16:56:44.165Z,58.57
2023-03-10T16:59:56.472Z,59.35
2023-03-10T17:03:04.513Z,59.89
2023-03-10T17:06:13.516Z,59.73
2023-03-10T17:09:23.117Z,60.32
2023-03-10T17:12:29.203Z,60.40
2023-03-10T17:15:36.009Z,60.74
2023-03-10T17:18:42.149Z,60.58
2023-03-10T17:21:52.684Z,60.95
2023-03-10T17:25:02.182Z,61.34
2023-03-10T17:28:11.383Z,60.96
2023-03-10T17:31:20.907Z,61.36
2023-03-10T17:34:29.587Z,61.80
2023-03-10T17:37:35.631Z,62.16
2023-03-10T17:40:46.364Z,62.27
2023-03-10T17:43:53.044Z,62.58
2023-03-10T17:47:00.001Z,62.69
2023-03-10T17:50:06.774Z,63.00
2023-03-10T17:53:16.515Z,63.13
2023-03-10T17:56:25.209Z,63.45
2023-03-10T17:59:33.016Z,63.25
2023-03-10T18:02:39.042Z,63.66
2023-03-10T18:05:47.841Z,64.17
2023-03-10T18:08:56.464Z,64.00
2023-03-10T18:12:06.461Z,64.21
2023-03-10T18:15:15.359Z,64.34
2023-03-10T18:18:22.242Z,64.35
2023-03-10T18:21:29.828Z,64.67
2023-03-10T18:24:36.677Z,64.80
2023-03-10T18:27:46.115Z,64.99
2023-03-10T18:30:55.013Z,65.57
2023-03-10T18:34:01.340Z,66.26
2023-03-10T18:37:08.390Z,66.14
2023-03-10T18:40:19.740Z,66.79
2023-03-10T18:43:32.315Z,66.91
2023-03-10T18:46:38.409Z,67.05
2023-03-10T18:49:45.574Z,67.17
2023-03-10T18:52:51.633Z,67.64
2023-03-10T18:56:03.156Z,68.11
2023-03-10T18:59:13.498Z,68.24
2023-03-10T19:02:20.619Z,68.50
2023-03-10T19:05:26.677Z,68.81
2023-03-10T19:08:34.542Z,69.02
2023-03-10T19:11:41.822Z,69.47
2023-03-10T19:14:51.326Z,69.34
2023-03-10T19:17:59.006Z,70.09
2023-03-10T19:21:09.764Z,70.27
2023-03-10T19:24:15.826Z,70.43
2023-03-10T19:27:22.852Z,70.33
2023-03-10T19:30:32.041Z,71.15
2023-03-10T19:33:40.006Z,70.79
2023-03-10T19:36:46.126Z,70.52
2023-03-10T19:39:53.157Z,70.62
2023-03-10T19:42:59.959Z,71.06
2023-03-10T19:46:12.927Z,71.42
2023-03-10T19:49:19.385Z,71.73
2023-03-10T19:52:26.859Z,71.85
2023-03-10T19:55:33.353Z,72.05
2023-03-10T19:58:40.772Z,72.08
2023-03-10T20:01:49.753Z,72.50
2023-03-10T20:04:56.738Z,72.09
2023-03-10T20:08:02.959Z,72.00
2023-03-10T20:11:13.739Z,71.91
2023-03-10T20:14:19.952Z,71.30
2023-03-10T20:17:30.823Z,71.24
2023-03-10T20:20:37.423Z,71.17
2023-03-10T20:23:47.780Z,70.47
2023-03-10T20:26:53.879Z,70.54
2023-03-10T20:30:00.865Z,70.28
2023-03-10T20:33:11.915Z,69.22
2023-03-10T20:36:18.933Z,68.84
2023-03-10T20:39:24.951Z,68.53
2023-03-10T20:42:31.878Z,68.11
2023-03-10T20:45:39.009Z,67.68
2023-03-10T20:48:48.876Z,67.82
2023-03-10T20:51:55.141Z,67.27
2023-03-10T20:55:02.200Z,67.40
2023-03-10T20:58:09.173Z,66.81
2023-03-10T21:01:19.704Z,67.22
2023-03-10T21:04:28.557Z,67.01
2023-03-10T21:07:35.947Z,66.94
2023-03-10T21:10:44.983Z,67.38
2023-03-10T21:13:53.189Z,66.78
2023-03-10T21:17:00.241Z,66.78
2023-03-10T21:20:13.760Z,66.46
2023-03-10T21:23:19.857Z,65.96
2023-03-10T21:26:27.211Z,65.71
2023-03-10T21:29:33.337Z,65.76
2023-03-10T21:32:41.161Z,65.53
2023-03-10T21:35:49.921Z,65.21
2023-03-10T21:38:57.131Z,65.12
2023-03-10T21:42:03.311Z,64.42
2023-03-10T21:45:14.643Z,64.59
2023-03-10T21:48:20.772Z,64.52
2023-03-10T21:51:33.813Z,64.13
2023-03-10T21:54:40.181Z,64.20
2023-03-10T21:57:46.963Z,64.01
2023-03-10T22:00:56.054Z,64.00
2023-03-10T22:04:03.046Z,63.85
2023-03-10T22:07:11.684Z,64.45
2023-03-10T22:10:19.891Z,64.44
2023-03-10T22:13:25.936Z,64.70
2023-03-10T22:16:33.128Z,65.05
2023-03-10T22:19:39.209Z,64.54
2023-03-10T22:22:48.788Z,65.00
2023-03-10T22:25:54.817Z,65.33
2023-03-10T22:29:01.616Z,65.15
2023-03-10T22:32:08.958Z,65.42
2023-03-10T22:35:16.720Z,65.27
2023-03-10T22:38:25.595Z,65.20
2023-03-10T22:41:32.312Z,65.21
2023-03-10T22:44:39.954Z,65.75
2023-03-10T22:47:47.046Z,65.91
2023-03-10T22:50:53.403Z,66.41
2023-03-10T22:54:03.265Z,66.48
2023-03-10T22:57:09.939Z,66.35
2023-03-10T23:00:22.606Z,66.62
2023-03-10T23:03:28.757Z,67.32
2023-03-10T23:06:36.248Z,67.77
2023-03-10T23:09:46.208Z,68.01
2023-03-10T23:12:54.733Z,67.75
2023-03-10T23:16:01.178Z,68.05
2023-03-10T23:19:08.961Z,68.17
2023-03-10T23:22:14.777Z,68.23
2023-03-10T23:25:27.615Z,68.44
2023-03-10T23:28:33.712Z,68.27
2023-03-10T23:31:40.561Z,68.49
2023-03-10T23:34:46.741Z,68.21
2023-03-10T23:37:54.266Z,68.17
2023-03-10T23:41:02.832Z,67.58
2023-03-10T23:44:09.983Z,67.43
2023-03-10T23:47:18.791Z,67.32
2023-03-10T23:50:30.302Z,67.02
2023-03-10T23:53:36.399Z,66.69
2023-03-10T23:56:45.835Z,66.72
2023-03-10T23:59:52.042Z,66.68
